Como, CO

23. lokakuuta 2014 klo 04:05 (MDT) (GMT -0600)
Stanley Ridge @ Indian Mtn | Change Station
CLOSE
Current Station
Omat sääasemat
Location: Como, CO
Korkeus: 9784 ft
Lähimmät sääasemat

Kork 9784 ft 39.25 °N, 105.79 °W | Updated 5 minutes ago

Selkeää
Selkeää
33.1 °F
Tuntuu kuin 33 °F
N
0.0
Tuuli Suunnaltaan vaihteleva Tuuli ilmansuunnasta Luode
Gusts 0.0 mph

Tänään
Korkea -- | Matala -- °F
--% Sateen mahd.
Eilen
Korkea -- | Matala -- °F
Precip. -- tuumaa
7:21 AM 6:13 PM
Vähenevä sirppi, 0% visible
Ilmanpaine 30.10 tuumaa
Näkyvyys 10.0 mailia
Pilviä Selkeää
Tuulen hyytävyys 33 °F
Kastepiste 26 °F
Ilmankosteus 76%
Sademäärä 0.00 tuumaa
Lumensyvyys 0 in , 1 in , 178 in
UV 0 / 12
Pollen 2.40 / 12
Ilmanlaatu Ei saatavilla
Flu Activity Sporadic
METAR KLXV 230953Z AUTO VRB03KT 10SM CLR 02/M04 A3037 RMK AO2 SLP191 T00171044

More Conditions Fewer Conditions

Ilmanpaine 30.10 tuumaa
Näkyvyys 10.0 mailia
Pilviä Selkeää
Tuulen hyytävyys 33 °F
Kastepiste 26 °F
Ilmankosteus 76%
Sademäärä 0.00 tuumaa
Lumensyvyys 0 in , 1 in , 178 in
UV 0 / 12
Pollen 2.40 / 12
Ilmanlaatu Ei saatavilla
Flu Activity Sporadic
METAR KLXV 230953Z AUTO VRB03KT 10SM CLR 02/M04 A3037 RMK AO2 SLP191 T00171044

More Conditions Fewer Conditions

10-Day Weather Forecast

Almanac

Tähtitiede

Oct. 23, 2014 Nousuaika Laskuaika
Valoisa aika 07:21 (MDT) 18:13 (MDT)
Porvarillinen hämärä 06:54 (MDT) 18:40 (MDT)
Nauttinen hämärä 06:23 (MDT) 19:11 (MDT)
Astronominen hämärä 05:52 (MDT) 19:43 (MDT)
Kuu 07:04 (MDT) 18:16 (MDT)
Näkyvän valon pituus 11h 46m
Päivän pituus
10h 51m
Tomorrow will be 2m 22s shorter.
Vähenevä sirppi, 0% of the Moon is Illuminated
Tänään
Vähenevä sirppi
loka 23
Uusi
loka 30
Ensimmäinen neljännes
marras 6
Täysikuu
marras 14
Viimeinen neljännes

Tämän päivän ennätykset

State Highs State Lows

Community

WunderPhotos

Upload Photos

1,764,201 photos uploaded!

Nearby

Lumensyvyys

Station Depth Korkeus
Michigan Creek 0 in 10600 ft
Hoosier Pass 1 in 11400 ft
Fremont Pass 178 in 11400 ft
Jackwhacker Gulch 1 in 10960 ft
Copper Mountain 0 in 10500 ft

Maanjäristysaktiivisuus

Paikkakunta Distance Mag. Time & Date
No recent earthquake activity has been reported nearby.
Minimum magnitude displayed is 2.5.

Coastal Water Temperatures

Paikka Lämpötila
Ei ilmoittavia asemia

Lähimmät sääasemat